Latest Coastal Weather Observations for Spring Bay

IDT60701

Issued at 11:35 pm EDT Wednesday 22 October 2014 (issued every 10 minutes, with the page automatically refreshed every 10 minutes)

About coastal observations | Map of coastal stations | Coastal observations for TAS | Marine services | Other Formats
Station Details ID: 092133 Name: SPRING BAY NTC AWS Lat: -42.55 Lon: 147.93 Height: 0.0 m
Data from the previous 72 hours. | See also: Recent months for locations in Tasmania
Date/Time
EDT
Temp

°C
Wind Pressure Rain
since 9am
mm
Weather Cloud Vis
km
Sea
Height
m
Swell
Dir
 
Speed
knots
Gust
knots
hPa Trend Height
m
Period
s
Dir
22/11:30pm 14.6 SSE 11 15 1018.9 - - - - - - - - -
22/11:00pm 14.9 S 14 19 1018.4 - - - - - - - - -
22/10:30pm 14.6 S 7 9 1018.1 - - - - - - - - -
22/10:00pm 14.2 SE 8 10 1017.6 - - - - - - - - -
22/09:30pm 14.4 SE 16 19 1017.5 - - - - - - - - -
22/09:00pm 14.6 SE 22 26 1017.1 - - - - - - - - -
22/08:30pm 15.1 SSE 28 32 1016.3 - - - - - - - - -
22/08:16pm 14.9 ESE 15 27 1015.8 - - - - - - - - -
22/08:00pm 14.9 SSE 5 5 1015.1 - - - - - - - - -
22/07:30pm 15.2 SE 3 5 1014.1 - - - - - - - - -
22/07:00pm 15.2 W 1 3 1013.7 - - - - - - - - -
22/06:30pm 15.7 NE 1 2 1013.7 - - - - - - - - -
22/06:00pm 16.4 E 1 2 1013.8 - - - - - - - - -
22/05:30pm 16.8 ENE 7 8 1013.6 - - - - - - - - -
22/05:00pm 16.4 E 3 6 1013.7 - - - - - - - - -
22/04:30pm 18.4 NE 10 12 1013.6 - - - - - - - - -
22/04:00pm 19.1 NE 10 14 1013.4 - - - - - - - - -
22/03:30pm 18.3 NE 13 15 1013.7 - - - - - - - - -
22/03:00pm 20.2 ENE 9 13 1013.7 - - - - - - - - -
22/02:30pm 20.3 NE 12 17 1013.8 - - - - - - - - -
22/02:00pm 20.5 NE 11 15 1014.5 - - - - - - - - -
22/01:30pm 20.2 NE 10 14 1014.9 - - - - - - - - -
22/01:00pm 19.8 NE 12 15 1015.2 - - - - - - - - -
22/12:30pm 20.7 N 8 14 1015.8 - - - - - - - - -
22/12:00pm 19.8 NNW 9 15 1016.7 - - - - - - - - -
22/11:30am 18.1 NNW 9 13 1017.4 - - - - - - - - -
22/11:00am 16.8 NNW 12 15 1018.2 - - - - - - - - -
22/10:30am 16.4 NW 12 14 1018.8 - - - - - - - - -
22/10:00am 15.5 NW 7 9 1019.2 - - - - - - - - -
22/09:30am 15.0 NW 9 14 1019.5 - - - - - - - - -
22/09:00am 14.7 N 12 16 1019.7 - - - - - - - - -
22/08:30am 13.8 N 10 14 1020.2 - - - - - - - - -
22/08:00am 13.1 N 11 17 1020.5 - - - - - - - - -
22/07:30am 12.5 N 11 15 1020.9 - - - - - - - - -
22/07:00am 11.9 N 12 16 1021.3 - - - - - - - - -
22/06:30am 11.3 N 10 16 1021.7 - - - - - - - - -
22/06:00am 11.0 N 11 14 1021.9 - - - - - - - - -
22/05:30am 10.9 N 8 11 1022.2 - - - - - - - - -
22/05:00am 11.0 NNW 10 12 1022.5 - - - - - - - - -
22/04:30am 11.0 N 10 14 1022.9 - - - - - - - - -
22/04:00am 11.3 NNW 11 15 1023.5 - - - - - - - - -
22/03:30am 11.5 NNW 10 13 1023.9 - - - - - - - - -
22/03:00am 11.6 NNW 12 16 1024.2 - - - - - - - - -
22/02:30am 11.2 NNW 8 11 1024.7 - - - - - - - - -
22/02:00am 11.3 N 12 15 1024.9 - - - - - - - - -
22/01:30am 11.4 N 10 14 1025.1 - - - - - - - - -
22/01:00am 11.6 N 10 13 1025.7 - - - - - - - - -
22/12:30am 11.9 N 11 15 1026.0 - - - - - - - - -
22/12:00am 11.5 NNW 6 11 1026.4 - - - - - - - - -
 
Date/Time
EDT
Temp

°C
Wind Pressure Rain
since 9am
mm
Weather Cloud Vis
km
Sea
Height
m
Swell
Dir
 
Speed
knots
Gust
knots
hPa Trend Height
m
Period
s
Dir
21/11:30pm 10.8 NNW 5 8 1026.8 - - - - - - - - -
21/11:00pm 11.3 NW 4 6 1027.1 - - - - - - - - -
21/10:30pm 11.9 NW 7 10 1027.1 - - - - - - - - -
21/10:00pm 12.4 NW 6 10 1027.4 - - - - - - - - -
21/09:30pm 13.0 NNW 7 9 1027.8 - - - - - - - - -
21/09:00pm 13.3 N 9 15 1027.6 - - - - - - - - -
21/08:30pm 13.3 N 8 13 1027.8 - - - - - - - - -
21/08:00pm 13.5 N 9 15 1027.9 - - - - - - - - -
21/07:30pm 13.7 N 8 15 1028.1 - - - - - - - - -
21/07:00pm 14.3 N 10 16 1028.1 - - - - - - - - -
21/06:30pm 14.7 N 10 16 1028.3 - - - - - - - - -
21/06:00pm 15.0 N 10 17 1028.2 - - - - - - - - -
21/05:30pm 15.1 N 14 19 1028.4 - - - - - - - - -
21/05:00pm 15.4 N 16 22 1028.5 - - - - - - - - -
21/04:30pm 15.4 N 14 22 1028.7 - - - - - - - - -
21/04:00pm 15.9 N 15 21 1029.1 - - - - - - - - -
21/03:30pm 15.3 N 13 24 1029.6 - - - - - - - - -
21/03:00pm 15.7 NNE 11 20 1030.1 - - - - - - - - -
21/02:30pm 15.4 NNE 14 21 1030.5 - - - - - - - - -
21/02:00pm 15.3 NNE 14 20 1031.0 - - - - - - - - -
21/01:30pm 15.0 NNE 12 21 1031.4 - - - - - - - - -
21/01:00pm 14.7 NNE 14 21 1031.7 - - - - - - - - -
21/12:30pm 15.0 NNE 13 20 1031.9 - - - - - - - - -
21/12:00pm 14.5 NNE 12 20 1032.4 - - - - - - - - -
21/11:30am 14.1 NNE 10 19 1032.7 - - - - - - - - -
21/11:00am 13.8 N 10 18 1033.1 - - - - - - - - -
21/10:30am 13.9 NNE 6 11 1033.6 - - - - - - - - -
21/10:00am 12.9 N 10 14 1033.8 - - - - - - - - -
21/09:30am 12.5 NNW 12 17 1033.9 - - - - - - - - -
21/09:00am 11.4 W 2 8 1034.1 - - - - - - - - -
21/08:30am 11.0 N 1 3 1034.1 - - - - - - - - -
21/08:00am 7.8 NW 2 3 1034.2 - - - - - - - - -
21/07:30am 6.6 NW 3 4 1034.2 - - - - - - - - -
21/07:00am 6.4 WNW 3 4 1034.1 - - - - - - - - -
21/06:30am 5.9 WNW 2 4 1033.9 - - - - - - - - -
21/06:00am 6.0 NW 4 5 1033.8 - - - - - - - - -
21/05:30am 6.0 NW 7 8 1033.5 - - - - - - - - -
21/05:00am 5.5 NNW 4 6 1033.3 - - - - - - - - -
21/04:30am 6.2 WNW 3 4 1033.4 - - - - - - - - -
21/04:00am 6.3 NW 5 7 1033.2 - - - - - - - - -
21/03:30am 6.8 NW 4 6 1033.4 - - - - - - - - -
21/03:00am 7.0 NW 5 6 1033.6 - - - - - - - - -
21/02:30am 7.4 NW 5 6 1033.7 - - - - - - - - -
21/02:00am 7.5 NW 6 7 1033.7 - - - - - - - - -
21/01:30am 7.7 NNW 7 8 1034.1 - - - - - - - - -
21/01:00am 8.5 NW 5 8 1034.4 - - - - - - - - -
21/12:30am 9.1 NNW 4 7 1034.6 - - - - - - - - -
21/12:00am 10.4 NNE 5 6 1034.7 - - - - - - - - -
 
Date/Time
EDT
Temp

°C
Wind Pressure Rain
since 9am
mm
Weather Cloud Vis
km
Sea
Height
m
Swell
Dir
 
Speed
knots
Gust
knots
hPa Trend Height
m
Period
s
Dir
20/11:30pm 10.4 N 4 5 1035.3 - - - - - - - - -
20/11:00pm 10.6 NNW 4 5 1035.5 - - - - - - - - -
20/10:30pm 10.7 NE 1 3 1035.7 - - - - - - - - -
20/10:00pm 10.6 ENE 3 4 1035.7 - - - - - - - - -
20/09:30pm 10.6 E 4 8 1035.5 - - - - - - - - -
20/09:00pm 10.9 E 8 10 1035.4 - - - - - - - - -
20/08:30pm 10.9 ESE 7 11 1035.1 - - - - - - - - -
20/08:00pm 10.9 ESE 7 11 1034.6 - - - - - - - - -
20/07:30pm 11.2 SE 10 11 1034.4 - - - - - - - - -
20/07:00pm 11.7 E 5 9 1034.1 - - - - - - - - -
20/06:30pm 11.6 ENE 4 8 1033.9 - - - - - - - - -
20/06:00pm 11.8 ENE 8 12 1033.7 - - - - - - - - -
20/05:30pm 12.0 ENE 8 12 1033.7 - - - - - - - - -
20/05:00pm 11.6 NE 10 13 1033.6 - - - - - - - - -
20/04:30pm 12.1 NE 10 14 1033.5 - - - - - - - - -
20/04:00pm 11.9 NE 8 12 1033.5 - - - - - - - - -
20/03:30pm 13.2 ESE 10 16 1033.4 - - - - - - - - -
20/03:00pm 12.7 ESE 12 16 1033.3 - - - - - - - - -
20/02:30pm 12.7 ESE 10 15 1033.5 - - - - - - - - -
20/02:00pm 12.7 ESE 9 14 1033.7 - - - - - - - - -
20/01:30pm 12.2 ESE 11 15 1033.7 - - - - - - - - -
20/01:00pm 12.3 ESE 10 13 1033.7 - - - - - - - - -
20/12:30pm 11.5 SE 3 4 1033.8 - - - - - - - - -
20/12:00pm 11.6 ESE 5 7 1033.9 - - - - - - - - -
20/11:30am 10.9 S 5 11 1033.9 - - - - - - - - -
20/11:00am 10.9 SW 7 12 1034.0 - - - - - - - - -

Other Formats:

Comma delimited format used in spreadsheet applications
http://www.bom.gov.au/fwo/IDT60701/IDT60701.95987.axf

JavaScript Object Notation format (JSON) in row-major order
http://www.bom.gov.au/fwo/IDT60701/IDT60701.95987.json